Alliance, NE (69301)

11:30 AM MDT on August 27, 2014 (GMT -0600)
Panhandle Coop/Box Butte Co | Change Station
CLOSE
Current Station
Personal Weather Station
Location: Alliance, NE
Elevation: 4140 ft
Nearby Weather Stations

Elev 4140 ft 42.22 °N, 102.98 °W | Updated 5 minutes ago

Partly Cloudy
Partly Cloudy
70.0 °F
Feels Like 70.0 °F
N
6.0
Wind Variable Wind from ENE
Gusts 11.0 mph

Today
High -- | Low -- °F
--% Chance of Precip.
Yesterday
High -- | Low -- °F
Precip. -- in
6:11 AM 7:33 PM
Waxing Crescent, 4% visible
Pressure 30.01 in
Visibility 10.0 miles
Clouds Scattered Clouds 1700 ft
Dew Point 64 °F
Humidity 82%
Rainfall 0.07 in
Snow Depth Not available.
UV 6 out of 12
Pollen 8.10 out of 12
Air Quality Not available.
Flu Activity Not available.
METAR KAIA 271653Z AUTO 13013G19KT 10SM SCT017 23/17 A3013 RMK AO2 SLP160 T02280172

More Conditions Fewer Conditions

Pressure 30.01 in
Visibility 10.0 miles
Clouds Scattered Clouds 1700 ft
Dew Point 64 °F
Humidity 82%
Rainfall 0.07 in
Snow Depth Not available.
UV 6 out of 12
Pollen 8.10 out of 12
Air Quality Not available.
Flu Activity Not available.
METAR KAIA 271653Z AUTO 13013G19KT 10SM SCT017 23/17 A3013 RMK AO2 SLP160 T02280172

More Conditions Fewer Conditions

10-Day Weather Forecast

Almanac

Astronomy

Aug. 27, 2014 Rise Set
Actual Time 6:11 AM MDT 7:33 PM MDT
Civil Twilight 5:42 AM MDT 8:02 PM MDT
Nautical Twilight 5:07 AM MDT 8:37 PM MDT
Astronomical Twilight 4:30 AM MDT 9:14 PM MDT
Moon 8:12 AM MDT 8:23 PM MDT
Length of Visible Light 14h 19m
Length of Day
13h 21m
Tomorrow will be 2m 41s shorter.
Waxing Crescent, 4% of the Moon is Illuminated
Today
Waxing Crescent
Sep 2
First Quarter
Sep 8
Full
Sep 15
Last Quarter
Sep 24
New

Today's Extremes

State Highs State Lows

Community

WunderPhotos

Upload Photos

1,747,733 photos uploaded!

Nearby

Snow Depth

Station Depth Elevation
No new snow has been reported.

Earthquake Activity

City Distance Mag. Time & Date
No recent earthquake activity has been reported nearby.
Minimum magnitude displayed is 2.5.

Coastal Water Temperatures

Place Temperature
No Stations Reporting

Nearby Weather Stations